GEC8044 EDDF-KORD
Flight info
| Callsign | GEC8044 |
|---|---|
| Flight time | N/A |
| Altitude | 34000 |
| Route | OBOKA5G/25C OBOKA Z28 DIBIR DCT BUDIP DCT RAVLO Y70 OTBED DCT ABLUC DCT OZRAT DCT WETFI DCT DODIG DCT REVNU DCT PIKIL NATA JANJO N714B YBC DCT IGSAS DCT KAPUX DCT HOCKE DCT FNT |
| Aircraft | B77L/H-VGDW/C |
Departure
| Time | 2026-05-04 09:01 |
|---|---|
| Airport | Frankfurt Main Airport (EDDF) |
Arrival
| Time | N/A |
|---|---|
| Airport | Chicago O'Hare International Airport (KORD) |
| Time | Latitude | Longitude | Altitude | Speed | Heading |
|---|---|---|---|---|---|
| 2026-05-04 08:16 | 50.04002 | 8.54539 | 359 ft | 0 kts | 249° |
| 2026-05-04 08:21 | 50.04065 | 8.54503 | 361 ft | 0 kts | 250° |
| 2026-05-04 08:42 | 50.04066 | 8.54506 | 353 ft | 2 kts | 250° |
| 2026-05-04 08:43 | 50.04074 | 8.54544 | 360 ft | 4 kts | 249° |
| 2026-05-04 08:43 | 50.04085 | 8.54581 | 363 ft | 4 kts | 232° |
| 2026-05-04 08:43 | 50.04102 | 8.54606 | 363 ft | 4 kts | 199° |
| 2026-05-04 08:43 | 50.04120 | 8.54609 | 361 ft | 1 kts | 161° |
| 2026-05-04 08:44 | 50.04121 | 8.54609 | 361 ft | 0 kts | 161° |
| 2026-05-04 08:50 | 50.03963 | 8.54767 | 364 ft | 9 kts | 85° |
| 2026-05-04 08:50 | 50.03978 | 8.54838 | 362 ft | 6 kts | 70° |
| 2026-05-04 08:51 | 50.03989 | 8.54905 | 359 ft | 6 kts | 88° |
| 2026-05-04 08:51 | 50.03970 | 8.54964 | 364 ft | 6 kts | 143° |
| 2026-05-04 08:51 | 50.03911 | 8.55006 | 361 ft | 13 kts | 161° |
| 2026-05-04 08:51 | 50.03851 | 8.55072 | 359 ft | 11 kts | 105° |
| 2026-05-04 08:52 | 50.03864 | 8.55185 | 357 ft | 11 kts | 68° |
| 2026-05-04 08:52 | 50.03892 | 8.55294 | 360 ft | 11 kts | 69° |
| 2026-05-04 08:52 | 50.03918 | 8.55404 | 358 ft | 11 kts | 70° |
| 2026-05-04 08:52 | 50.03944 | 8.55514 | 360 ft | 11 kts | 70° |
| 2026-05-04 08:53 | 50.03971 | 8.55624 | 360 ft | 11 kts | 69° |
| 2026-05-04 08:54 | 50.04279 | 8.56915 | 365 ft | 22 kts | 69° |
| 2026-05-04 08:55 | 50.04331 | 8.57136 | 367 ft | 22 kts | 70° |
| 2026-05-04 08:55 | 50.04384 | 8.57355 | 370 ft | 22 kts | 68° |
| 2026-05-04 08:55 | 50.04437 | 8.57575 | 371 ft | 22 kts | 70° |
| 2026-05-04 08:55 | 50.04489 | 8.57795 | 370 ft | 22 kts | 69° |
| 2026-05-04 08:57 | 50.04601 | 8.58733 | 378 ft | 8 kts | 211° |
| 2026-05-04 09:01 | 50.02231 | 8.37717 | 4099 ft | 256 kts | 258° |
| 2026-05-04 09:01 | 50.01904 | 8.34982 | 4839 ft | 257 kts | 258° |
| 2026-05-04 09:01 | 50.01575 | 8.32232 | 5564 ft | 260 kts | 258° |
| 2026-05-04 09:01 | 50.01268 | 8.29459 | 6226 ft | 261 kts | 265° |
| 2026-05-04 09:02 | 50.01566 | 8.26657 | 6730 ft | 269 kts | 292° |
| 2026-05-04 09:02 | 50.02366 | 8.24001 | 7208 ft | 274 kts | 292° |
| 2026-05-04 09:02 | 50.03158 | 8.21322 | 7867 ft | 276 kts | 292° |
| 2026-05-04 09:02 | 50.03953 | 8.18603 | 8551 ft | 278 kts | 291° |
| 2026-05-04 09:03 | 50.04754 | 8.15855 | 9194 ft | 280 kts | 291° |
| 2026-05-04 09:03 | 50.05563 | 8.13076 | 9818 ft | 283 kts | 291° |
| 2026-05-04 09:03 | 50.06548 | 8.10401 | 10330 ft | 291 kts | 303° |
| 2026-05-04 09:03 | 50.07835 | 8.07824 | 10515 ft | 311 kts | 306° |
| 2026-05-04 09:04 | 50.09266 | 8.05155 | 10680 ft | 331 kts | 307° |
| 2026-05-04 09:04 | 50.10788 | 8.02320 | 10847 ft | 352 kts | 307° |
| 2026-05-04 09:04 | 50.12384 | 7.99305 | 11153 ft | 367 kts | 307° |
| 2026-05-04 09:04 | 50.14021 | 7.96176 | 11647 ft | 377 kts | 306° |
| 2026-05-04 09:05 | 50.15682 | 7.92975 | 12284 ft | 381 kts | 306° |
| 2026-05-04 09:05 | 50.17352 | 7.89735 | 13064 ft | 384 kts | 306° |
| 2026-05-04 09:05 | 50.19031 | 7.86463 | 13768 ft | 388 kts | 306° |
| 2026-05-04 09:05 | 50.20723 | 7.83150 | 14371 ft | 393 kts | 306° |
| 2026-05-04 09:06 | 50.22397 | 7.79868 | 14919 ft | 396 kts | 306° |
| 2026-05-04 09:07 | 50.39513 | 7.64201 | 18590 ft | 430 kts | 333° |
| 2026-05-04 09:08 | 50.42266 | 7.62302 | 19091 ft | 433 kts | 333° |
| 2026-05-04 09:08 | 50.44097 | 7.61041 | 19436 ft | 435 kts | 333° |
| 2026-05-04 09:08 | 50.47790 | 7.58496 | 20142 ft | 438 kts | 333° |
| 2026-05-04 09:08 | 50.50591 | 7.56565 | 20626 ft | 441 kts | 333° |
| 2026-05-04 09:09 | 50.52487 | 7.55256 | 20947 ft | 443 kts | 333° |
| 2026-05-04 09:09 | 50.56235 | 7.52632 | 21583 ft | 445 kts | 330° |
| 2026-05-04 09:09 | 50.58075 | 7.51053 | 21872 ft | 445 kts | 325° |
| 2026-05-04 09:09 | 50.60590 | 7.48480 | 22308 ft | 447 kts | 321° |
| 2026-05-04 09:10 | 50.63151 | 7.45674 | 22791 ft | 449 kts | 321° |
| 2026-05-04 09:10 | 50.65735 | 7.42864 | 23288 ft | 452 kts | 321° |
| 2026-05-04 09:10 | 50.68361 | 7.40098 | 23725 ft | 455 kts | 322° |
| 2026-05-04 09:10 | 50.71029 | 7.37351 | 24112 ft | 458 kts | 322° |
| 2026-05-04 09:11 | 50.73689 | 7.34581 | 24491 ft | 457 kts | 319° |
| 2026-05-04 09:11 | 50.75983 | 7.31152 | 24794 ft | 449 kts | 302° |
| 2026-05-04 09:11 | 50.77740 | 7.27099 | 25119 ft | 449 kts | 298° |
| 2026-05-04 09:11 | 50.79459 | 7.22976 | 25486 ft | 451 kts | 299° |
| 2026-05-04 09:12 | 50.81212 | 7.18850 | 25911 ft | 453 kts | 300° |
| 2026-05-04 09:12 | 50.83002 | 7.14736 | 26351 ft | 454 kts | 300° |
| 2026-05-04 09:14 | 50.95888 | 6.85664 | 28941 ft | 466 kts | 300° |
| 2026-05-04 09:14 | 50.97753 | 6.81447 | 29276 ft | 467 kts | 300° |
| 2026-05-04 09:14 | 50.99619 | 6.77217 | 29580 ft | 469 kts | 300° |
| 2026-05-04 09:14 | 51.01488 | 6.72976 | 29974 ft | 468 kts | 300° |
| 2026-05-04 09:15 | 51.03345 | 6.68753 | 30383 ft | 466 kts | 300° |
| 2026-05-04 09:15 | 51.05196 | 6.64537 | 30729 ft | 465 kts | 300° |
| 2026-05-04 09:15 | 51.07044 | 6.60321 | 31012 ft | 465 kts | 300° |
| 2026-05-04 09:15 | 51.08889 | 6.56104 | 31302 ft | 464 kts | 300° |
| 2026-05-04 09:17 | 51.23503 | 6.22220 | 32704 ft | 461 kts | 299° |
| 2026-05-04 09:18 | 51.25306 | 6.18010 | 33051 ft | 459 kts | 299° |
| 2026-05-04 09:18 | 51.27101 | 6.13812 | 33302 ft | 458 kts | 299° |
| 2026-05-04 09:18 | 51.30637 | 6.05305 | 33326 ft | 459 kts | 297° |
| 2026-05-04 09:19 | 51.34091 | 5.96774 | 33182 ft | 454 kts | 297° |
| 2026-05-04 09:19 | 51.35814 | 5.92534 | 32830 ft | 456 kts | 297° |
| 2026-05-04 09:19 | 51.37601 | 5.88309 | 32395 ft | 462 kts | 301° |
| 2026-05-04 09:20 | 51.39641 | 5.84290 | 32026 ft | 468 kts | 307° |
| 2026-05-04 09:20 | 51.41893 | 5.80504 | 32010 ft | 471 kts | 308° |
| 2026-05-04 09:20 | 51.46444 | 5.72940 | 31995 ft | 471 kts | 308° |
| 2026-05-04 09:21 | 51.50964 | 5.65367 | 31994 ft | 469 kts | 308° |
| 2026-05-04 09:21 | 51.55433 | 5.57808 | 31995 ft | 469 kts | 307° |
| 2026-05-04 09:22 | 51.59945 | 5.50130 | 31994 ft | 468 kts | 307° |
| 2026-05-04 09:22 | 51.64413 | 5.42500 | 31992 ft | 468 kts | 307° |
| 2026-05-04 09:23 | 51.68850 | 5.34903 | 31989 ft | 469 kts | 307° |
| 2026-05-04 09:23 | 51.73324 | 5.27220 | 31992 ft | 470 kts | 307° |
| 2026-05-04 09:25 | 51.91203 | 4.96284 | 31981 ft | 471 kts | 307° |
| 2026-05-04 09:26 | 51.95659 | 4.88514 | 31982 ft | 470 kts | 307° |
| 2026-05-04 09:26 | 51.99857 | 4.81169 | 31989 ft | 470 kts | 307° |
| 2026-05-04 09:27 | 52.04298 | 4.73376 | 31987 ft | 470 kts | 307° |
| 2026-05-04 09:27 | 52.08731 | 4.65574 | 31992 ft | 469 kts | 307° |
| 2026-05-04 09:28 | 52.13152 | 4.57769 | 31989 ft | 469 kts | 307° |
| 2026-05-04 09:28 | 52.17573 | 4.49938 | 31995 ft | 469 kts | 307° |
| 2026-05-04 09:29 | 52.21980 | 4.42107 | 31994 ft | 469 kts | 307° |
| 2026-05-04 09:29 | 52.26383 | 4.34257 | 31996 ft | 469 kts | 307° |
| 2026-05-04 09:30 | 52.30780 | 4.26395 | 31998 ft | 469 kts | 307° |
| 2026-05-04 09:30 | 52.35143 | 4.18567 | 31998 ft | 469 kts | 307° |
| 2026-05-04 09:31 | 52.39533 | 4.10668 | 32002 ft | 469 kts | 307° |
| 2026-05-04 09:31 | 52.43925 | 4.02738 | 32006 ft | 469 kts | 307° |
| 2026-05-04 09:32 | 52.48313 | 3.94790 | 32006 ft | 470 kts | 307° |
| 2026-05-04 09:34 | 52.65799 | 3.62867 | 31995 ft | 470 kts | 307° |
| 2026-05-04 09:34 | 52.70162 | 3.54836 | 32003 ft | 470 kts | 307° |
| 2026-05-04 09:35 | 52.74521 | 3.46786 | 32010 ft | 470 kts | 307° |
| 2026-05-04 09:35 | 52.78864 | 3.38740 | 32012 ft | 469 kts | 307° |
| 2026-05-04 09:37 | 52.92420 | 3.08981 | 32024 ft | 454 kts | 285° |
| 2026-05-04 09:37 | 52.93238 | 3.04015 | 32025 ft | 450 kts | 278° |
| 2026-05-04 09:38 | 52.94520 | 2.93851 | 32023 ft | 451 kts | 278° |
| 2026-05-04 09:38 | 52.95803 | 2.83648 | 32022 ft | 452 kts | 278° |
| 2026-05-04 09:39 | 52.97116 | 2.73418 | 32025 ft | 454 kts | 279° |
| 2026-05-04 09:39 | 52.98439 | 2.63162 | 32025 ft | 455 kts | 279° |
| 2026-05-04 09:40 | 52.99756 | 2.52877 | 32028 ft | 456 kts | 279° |
| 2026-05-04 09:40 | 53.01067 | 2.42563 | 32026 ft | 457 kts | 279° |
| 2026-05-04 09:42 | 53.06253 | 2.00969 | 32034 ft | 462 kts | 279° |
| 2026-05-04 09:43 | 53.07529 | 1.90551 | 32034 ft | 463 kts | 279° |
| 2026-05-04 09:43 | 53.08807 | 1.80048 | 32040 ft | 464 kts | 279° |
| 2026-05-04 09:44 | 53.10079 | 1.69505 | 32039 ft | 466 kts | 279° |
| 2026-05-04 09:46 | 53.15113 | 1.26943 | 32046 ft | 471 kts | 279° |
| 2026-05-04 09:46 | 53.16357 | 1.16204 | 32050 ft | 473 kts | 279° |
| 2026-05-04 09:47 | 53.17595 | 1.05436 | 32049 ft | 474 kts | 279° |
| 2026-05-04 09:49 | 53.22265 | 0.63957 | 32052 ft | 476 kts | 280° |
| 2026-05-04 09:51 | 53.26423 | 0.25725 | 32053 ft | 481 kts | 280° |
| 2026-05-04 09:51 | 53.27593 | 0.14682 | 32056 ft | 483 kts | 280° |
| 2026-05-04 09:52 | 53.28760 | 0.03598 | 32055 ft | 485 kts | 280° |
| 2026-05-04 09:52 | 53.30094 | -0.07464 | 32054 ft | 486 kts | 283° |
| 2026-05-04 09:53 | 53.31604 | -0.18507 | 32059 ft | 488 kts | 283° |
| 2026-05-04 09:53 | 53.33095 | -0.29541 | 32063 ft | 490 kts | 283° |
| 2026-05-04 09:54 | 53.34556 | -0.40723 | 32061 ft | 493 kts | 283° |
| 2026-05-04 09:54 | 53.35995 | -0.51943 | 32052 ft | 493 kts | 283° |
| 2026-05-04 09:55 | 53.37423 | -0.63184 | 32064 ft | 494 kts | 283° |
| 2026-05-04 09:55 | 53.38844 | -0.74440 | 32060 ft | 494 kts | 283° |
| 2026-05-04 09:56 | 53.40256 | -0.85711 | 32066 ft | 494 kts | 283° |
| 2026-05-04 09:56 | 53.41657 | -0.96982 | 32077 ft | 494 kts | 283° |
| 2026-05-04 09:57 | 53.43049 | -1.08270 | 32079 ft | 494 kts | 283° |
| 2026-05-04 09:57 | 53.44430 | -1.19569 | 32076 ft | 495 kts | 283° |
| 2026-05-04 09:58 | 53.45807 | -1.30926 | 32079 ft | 497 kts | 283° |
| 2026-05-04 09:58 | 53.47176 | -1.42309 | 32074 ft | 498 kts | 283° |
| 2026-05-04 10:00 | 53.52556 | -1.88050 | 32076 ft | 501 kts | 283° |
| 2026-05-04 10:04 | 53.61611 | -2.68921 | 32071 ft | 504 kts | 283° |
| 2026-05-04 10:04 | 53.62864 | -2.80558 | 32086 ft | 505 kts | 283° |
| 2026-05-04 10:05 | 53.64109 | -2.92219 | 32073 ft | 506 kts | 283° |
| 2026-05-04 10:05 | 53.65339 | -3.03844 | 32078 ft | 506 kts | 283° |
| 2026-05-04 10:06 | 53.66573 | -3.15626 | 32073 ft | 507 kts | 283° |
| 2026-05-04 10:06 | 53.67779 | -3.27267 | 32077 ft | 506 kts | 283° |
| 2026-05-04 10:08 | 53.71931 | -3.68224 | 32080 ft | 505 kts | 282° |
| 2026-05-04 10:08 | 53.73089 | -3.79912 | 32080 ft | 504 kts | 282° |
| 2026-05-04 10:09 | 53.74234 | -3.91601 | 32084 ft | 504 kts | 282° |
| 2026-05-04 10:09 | 53.75367 | -4.03282 | 32090 ft | 503 kts | 282° |
| 2026-05-04 10:10 | 53.76489 | -4.14968 | 32086 ft | 503 kts | 282° |
| 2026-05-04 10:10 | 53.77597 | -4.26639 | 32086 ft | 502 kts | 282° |
| 2026-05-04 10:11 | 53.78694 | -4.38311 | 32084 ft | 502 kts | 282° |
| 2026-05-04 10:11 | 53.79769 | -4.49902 | 32081 ft | 502 kts | 281° |
| 2026-05-04 10:12 | 53.80331 | -4.61695 | 32089 ft | 503 kts | 275° |
| 2026-05-04 10:12 | 53.80688 | -4.73522 | 32085 ft | 503 kts | 276° |
| 2026-05-04 10:13 | 53.81089 | -4.85334 | 32085 ft | 502 kts | 276° |
| 2026-05-04 10:13 | 53.81468 | -4.97153 | 32091 ft | 502 kts | 275° |
| 2026-05-04 10:14 | 53.81827 | -5.08949 | 32096 ft | 502 kts | 275° |
| 2026-05-04 10:16 | 53.83702 | -5.55914 | 32094 ft | 497 kts | 286° |
| 2026-05-04 10:16 | 53.85313 | -5.67285 | 32108 ft | 496 kts | 286° |
| 2026-05-04 10:17 | 53.86919 | -5.78652 | 32099 ft | 496 kts | 286° |
| 2026-05-04 10:19 | 53.93028 | -6.24251 | 32099 ft | 496 kts | 285° |
| 2026-05-04 10:19 | 53.94528 | -6.35676 | 32102 ft | 496 kts | 285° |
| 2026-05-04 10:20 | 53.96018 | -6.47107 | 32110 ft | 495 kts | 285° |
| 2026-05-04 10:20 | 53.97615 | -6.58482 | 32097 ft | 494 kts | 287° |
| 2026-05-04 10:21 | 53.99404 | -6.69757 | 32104 ft | 493 kts | 288° |
| 2026-05-04 10:21 | 54.01185 | -6.81018 | 32105 ft | 493 kts | 287° |
| 2026-05-04 10:22 | 54.03779 | -6.97948 | 32107 ft | 493 kts | 287° |
| 2026-05-04 10:23 | 54.05482 | -7.09259 | 32101 ft | 493 kts | 287° |
| 2026-05-04 10:25 | 54.12175 | -7.54453 | 32100 ft | 492 kts | 286° |
| 2026-05-04 10:25 | 54.13823 | -7.65773 | 32105 ft | 492 kts | 286° |
| 2026-05-04 10:26 | 54.15461 | -7.77119 | 32106 ft | 492 kts | 286° |
| 2026-05-04 10:26 | 54.17087 | -7.88450 | 32110 ft | 492 kts | 285° |
| 2026-05-04 10:27 | 54.18702 | -7.99801 | 32098 ft | 492 kts | 285° |
| 2026-05-04 10:27 | 54.20308 | -8.11161 | 32111 ft | 491 kts | 285° |
| 2026-05-04 10:28 | 54.21632 | -8.20599 | 32115 ft | 491 kts | 285° |
| 2026-05-04 10:28 | 54.23473 | -8.33809 | 32128 ft | 491 kts | 285° |
| 2026-05-04 10:29 | 54.25042 | -8.45168 | 32127 ft | 491 kts | 285° |
| 2026-05-04 10:29 | 54.26349 | -8.54692 | 32140 ft | 491 kts | 285° |
| 2026-05-04 10:30 | 54.27898 | -8.66060 | 32124 ft | 491 kts | 285° |
| 2026-05-04 10:30 | 54.29427 | -8.77368 | 32136 ft | 490 kts | 285° |
| 2026-05-04 10:31 | 54.30954 | -8.88755 | 32123 ft | 490 kts | 285° |
| 2026-05-04 10:32 | 54.36212 | -9.28637 | 32122 ft | 490 kts | 284° |
| 2026-05-04 10:33 | 54.37691 | -9.40053 | 32125 ft | 490 kts | 284° |
| 2026-05-04 10:33 | 54.39157 | -9.51465 | 32130 ft | 490 kts | 284° |
| 2026-05-04 10:34 | 54.40615 | -9.62907 | 32133 ft | 490 kts | 284° |
| 2026-05-04 10:34 | 54.42061 | -9.74349 | 32141 ft | 491 kts | 284° |
| 2026-05-04 10:35 | 54.43498 | -9.85811 | 32139 ft | 491 kts | 284° |
| 2026-05-04 10:35 | 54.44925 | -9.97279 | 32143 ft | 491 kts | 284° |
| 2026-05-04 10:36 | 54.46537 | -10.08653 | 32131 ft | 488 kts | 291° |
| 2026-05-04 10:36 | 54.49221 | -10.19306 | 32137 ft | 484 kts | 302° |
| 2026-05-04 10:37 | 54.52652 | -10.29251 | 32148 ft | 483 kts | 303° |
| 2026-05-04 10:37 | 54.56127 | -10.39172 | 32146 ft | 483 kts | 303° |
| 2026-05-04 10:39 | 54.68049 | -10.74078 | 32150 ft | 481 kts | 303° |
| 2026-05-04 10:40 | 54.71422 | -10.84080 | 32140 ft | 481 kts | 303° |
| 2026-05-04 10:40 | 54.74782 | -10.94078 | 32147 ft | 480 kts | 303° |
| 2026-05-04 10:41 | 54.78131 | -11.04086 | 32144 ft | 480 kts | 303° |
| 2026-05-04 10:41 | 54.81467 | -11.14094 | 32147 ft | 479 kts | 303° |
| 2026-05-04 10:42 | 54.84791 | -11.24107 | 32139 ft | 478 kts | 303° |
| 2026-05-04 10:42 | 54.88099 | -11.34116 | 32148 ft | 478 kts | 303° |
| 2026-05-04 10:43 | 54.91398 | -11.44138 | 32142 ft | 477 kts | 303° |
| 2026-05-04 10:45 | 55.04431 | -11.84140 | 32136 ft | 474 kts | 302° |
| 2026-05-04 10:45 | 55.07661 | -11.94160 | 32145 ft | 473 kts | 302° |
| 2026-05-04 10:46 | 55.10881 | -12.04187 | 32139 ft | 473 kts | 302° |
| 2026-05-04 10:46 | 55.14087 | -12.14213 | 32143 ft | 472 kts | 302° |
| 2026-05-04 10:47 | 55.17279 | -12.24236 | 32137 ft | 472 kts | 302° |
| 2026-05-04 10:47 | 55.20459 | -12.34267 | 32140 ft | 471 kts | 302° |
| 2026-05-04 10:49 | 55.33066 | -12.74441 | 32144 ft | 469 kts | 302° |
| 2026-05-04 10:50 | 55.36187 | -12.84495 | 32141 ft | 468 kts | 302° |
| 2026-05-04 10:52 | 55.48559 | -13.24762 | 32143 ft | 468 kts | 301° |
| 2026-05-04 10:52 | 55.51636 | -13.34882 | 32146 ft | 467 kts | 301° |
| 2026-05-04 10:54 | 55.63838 | -13.75455 | 32145 ft | 467 kts | 301° |
| 2026-05-04 10:56 | 55.75869 | -14.16156 | 32147 ft | 467 kts | 301° |
| 2026-05-04 10:57 | 55.78864 | -14.26401 | 32141 ft | 467 kts | 301° |
| 2026-05-04 10:57 | 55.81846 | -14.36644 | 32142 ft | 467 kts | 301° |
| 2026-05-04 10:58 | 55.84821 | -14.46907 | 32141 ft | 467 kts | 301° |
| 2026-05-04 10:58 | 55.87785 | -14.57178 | 32143 ft | 467 kts | 301° |
| 2026-05-04 10:59 | 55.90747 | -14.67490 | 32137 ft | 467 kts | 301° |
| 2026-05-04 10:59 | 55.93699 | -14.77810 | 32146 ft | 467 kts | 301° |
| 2026-05-04 11:00 | 55.96651 | -14.88175 | 32141 ft | 468 kts | 300° |
| 2026-05-04 11:02 | 56.06984 | -15.31117 | 32140 ft | 473 kts | 295° |
| 2026-05-04 11:05 | 56.25027 | -16.13874 | 32155 ft | 475 kts | 295° |
| 2026-05-04 11:06 | 56.27392 | -16.24964 | 32152 ft | 475 kts | 294° |
| 2026-05-04 11:06 | 56.29749 | -16.36077 | 32154 ft | 475 kts | 294° |
| 2026-05-04 11:10 | 56.45586 | -17.12397 | 32164 ft | 476 kts | 293° |
| 2026-05-04 11:12 | 56.54624 | -17.57292 | 32167 ft | 474 kts | 292° |
| 2026-05-04 11:12 | 56.56855 | -17.68517 | 32168 ft | 468 kts | 289° |
| 2026-05-04 11:13 | 56.59030 | -17.79542 | 32166 ft | 463 kts | 288° |
| 2026-05-04 11:13 | 56.61189 | -17.90554 | 32172 ft | 464 kts | 288° |
| 2026-05-04 11:14 | 56.63345 | -18.01606 | 32173 ft | 465 kts | 288° |
| 2026-05-04 11:16 | 56.71902 | -18.46097 | 32177 ft | 467 kts | 288° |
| 2026-05-04 11:16 | 56.74023 | -18.57286 | 32181 ft | 467 kts | 288° |
| 2026-05-04 11:17 | 56.76135 | -18.68489 | 32179 ft | 467 kts | 288° |
| 2026-05-04 11:19 | 56.84471 | -19.13380 | 32187 ft | 466 kts | 288° |
| 2026-05-04 11:19 | 56.86527 | -19.24616 | 32187 ft | 466 kts | 287° |
| 2026-05-04 11:20 | 56.88559 | -19.35791 | 32185 ft | 466 kts | 287° |
| 2026-05-04 11:20 | 56.90594 | -19.47049 | 32194 ft | 466 kts | 287° |
| 2026-05-04 11:22 | 56.98634 | -19.92201 | 32198 ft | 466 kts | 287° |
| 2026-05-04 11:23 | 57.00152 | -20.03722 | 32197 ft | 465 kts | 278° |
| 2026-05-04 11:25 | 57.01711 | -20.45152 | 32203 ft | 465 kts | 274° |
| 2026-05-04 11:25 | 57.02134 | -20.56984 | 32206 ft | 465 kts | 274° |
| 2026-05-04 11:27 | 57.03905 | -21.10183 | 32209 ft | 464 kts | 274° |
| 2026-05-04 11:28 | 57.04268 | -21.22020 | 32215 ft | 464 kts | 273° |
| 2026-05-04 11:28 | 57.04619 | -21.33831 | 32212 ft | 463 kts | 273° |
| 2026-05-04 11:29 | 57.04959 | -21.45654 | 32211 ft | 463 kts | 273° |
| 2026-05-04 11:29 | 57.05287 | -21.57454 | 32213 ft | 463 kts | 273° |
| 2026-05-04 11:33 | 57.07269 | -22.39968 | 32227 ft | 461 kts | 272° |
| 2026-05-04 11:33 | 57.07508 | -22.51767 | 32231 ft | 461 kts | 272° |
| 2026-05-04 11:34 | 57.07735 | -22.63550 | 32226 ft | 461 kts | 272° |
| 2026-05-04 11:34 | 57.07952 | -22.75338 | 32232 ft | 462 kts | 272° |
| 2026-05-04 11:35 | 57.08057 | -22.81256 | 32385 ft | 464 kts | 272° |
| 2026-05-04 11:35 | 57.08158 | -22.87174 | 32714 ft | 462 kts | 272° |
| 2026-05-04 11:35 | 57.08257 | -22.93057 | 33076 ft | 460 kts | 272° |
| 2026-05-04 11:35 | 57.08352 | -22.98929 | 33407 ft | 459 kts | 272° |
| 2026-05-04 11:36 | 57.08445 | -23.04798 | 33669 ft | 458 kts | 272° |
| 2026-05-04 11:36 | 57.08534 | -23.10652 | 33929 ft | 458 kts | 272° |
| 2026-05-04 11:36 | 57.08621 | -23.16493 | 34150 ft | 458 kts | 272° |
| 2026-05-04 11:36 | 57.08706 | -23.22367 | 34188 ft | 459 kts | 272° |
| 2026-05-04 11:37 | 57.08866 | -23.34088 | 34221 ft | 458 kts | 272° |
| 2026-05-04 11:37 | 57.09016 | -23.45792 | 34236 ft | 457 kts | 271° |
| 2026-05-04 11:38 | 57.09153 | -23.57461 | 34237 ft | 456 kts | 271° |
| 2026-05-04 11:38 | 57.09280 | -23.69118 | 34239 ft | 456 kts | 271° |
| 2026-05-04 11:39 | 57.09397 | -23.80778 | 34243 ft | 456 kts | 271° |
| 2026-05-04 11:41 | 57.09719 | -24.21732 | 34243 ft | 459 kts | 271° |
| 2026-05-04 11:41 | 57.09786 | -24.33397 | 34247 ft | 460 kts | 270° |
| 2026-05-04 11:42 | 57.09843 | -24.45162 | 34238 ft | 461 kts | 270° |
| 2026-05-04 11:42 | 57.09889 | -24.56962 | 34241 ft | 461 kts | 270° |
| 2026-05-04 11:43 | 57.09924 | -24.68768 | 34242 ft | 462 kts | 270° |
| 2026-05-04 11:43 | 57.09948 | -24.80604 | 34241 ft | 463 kts | 270° |
| 2026-05-04 11:44 | 57.09961 | -24.92448 | 34243 ft | 463 kts | 270° |
| 2026-05-04 11:44 | 57.09963 | -25.04313 | 34248 ft | 464 kts | 270° |
| 2026-05-04 11:45 | 57.09953 | -25.16189 | 34251 ft | 464 kts | 270° |
| 2026-05-04 11:45 | 57.09932 | -25.28069 | 34251 ft | 465 kts | 269° |
| 2026-05-04 11:46 | 57.09900 | -25.39983 | 34253 ft | 465 kts | 269° |
| 2026-05-04 11:46 | 57.09856 | -25.51881 | 34255 ft | 466 kts | 269° |
| 2026-05-04 11:47 | 57.09802 | -25.63815 | 34250 ft | 467 kts | 269° |
| 2026-05-04 11:47 | 57.09736 | -25.75779 | 34251 ft | 468 kts | 269° |
| 2026-05-04 11:48 | 57.09657 | -25.87766 | 34252 ft | 469 kts | 269° |
| 2026-05-04 11:48 | 57.09568 | -25.99682 | 34253 ft | 469 kts | 269° |
| 2026-05-04 11:49 | 57.09468 | -26.11704 | 34261 ft | 470 kts | 268° |
| 2026-05-04 11:49 | 57.09355 | -26.23748 | 34259 ft | 470 kts | 268° |
| 2026-05-04 11:50 | 57.09231 | -26.35776 | 34256 ft | 470 kts | 268° |
| 2026-05-04 11:50 | 57.09095 | -26.47769 | 34260 ft | 468 kts | 268° |
| 2026-05-04 11:51 | 57.08949 | -26.59739 | 34262 ft | 467 kts | 268° |
| 2026-05-04 11:51 | 57.08820 | -26.69617 | 34250 ft | 462 kts | 268° |
| 2026-05-04 11:52 | 57.08656 | -26.81371 | 34266 ft | 461 kts | 268° |
| 2026-05-04 11:52 | 57.08479 | -26.93179 | 34261 ft | 462 kts | 268° |
| 2026-05-04 11:53 | 57.08292 | -27.04923 | 34266 ft | 460 kts | 268° |
| 2026-05-04 11:53 | 57.08094 | -27.16747 | 34271 ft | 464 kts | 268° |
| 2026-05-04 11:55 | 57.07191 | -27.63943 | 34281 ft | 463 kts | 267° |
| 2026-05-04 11:56 | 57.06936 | -27.75789 | 34276 ft | 464 kts | 267° |
| 2026-05-04 11:56 | 57.06671 | -27.87587 | 34264 ft | 458 kts | 267° |
| 2026-05-04 11:57 | 57.06400 | -27.99229 | 34277 ft | 457 kts | 267° |
| 2026-05-04 11:57 | 57.06116 | -28.10892 | 34272 ft | 455 kts | 267° |
| 2026-05-04 11:58 | 57.05823 | -28.22471 | 34287 ft | 458 kts | 267° |
| 2026-05-04 11:58 | 57.05517 | -28.34171 | 34269 ft | 456 kts | 267° |
| 2026-05-04 11:59 | 57.05202 | -28.45820 | 34281 ft | 458 kts | 266° |
| 2026-05-04 11:59 | 57.04874 | -28.57488 | 34271 ft | 455 kts | 266° |
| 2026-05-04 12:00 | 57.04538 | -28.69097 | 34287 ft | 459 kts | 266° |
| 2026-05-04 12:00 | 57.04188 | -28.80813 | 34273 ft | 457 kts | 266° |
| 2026-05-04 12:01 | 57.03828 | -28.92463 | 34287 ft | 459 kts | 266° |
| 2026-05-04 12:02 | 57.02481 | -29.33352 | 34280 ft | 458 kts | 266° |
| 2026-05-04 12:03 | 57.02071 | -29.45059 | 34299 ft | 461 kts | 266° |
| 2026-05-04 12:03 | 57.01650 | -29.56763 | 34288 ft | 459 kts | 266° |
| 2026-05-04 12:04 | 57.01213 | -29.68592 | 34299 ft | 462 kts | 266° |
| 2026-05-04 12:04 | 57.00769 | -29.80324 | 34305 ft | 462 kts | 266° |
| 2026-05-04 12:05 | 57.00316 | -29.92040 | 34295 ft | 461 kts | 266° |
| 2026-05-04 12:05 | 57.00076 | -30.03776 | 34301 ft | 464 kts | 273° |
| 2026-05-04 12:06 | 57.00546 | -30.15643 | 34297 ft | 462 kts | 274° |
| 2026-05-04 12:06 | 57.01040 | -30.27458 | 34309 ft | 465 kts | 274° |
| 2026-05-04 12:07 | 57.01502 | -30.39311 | 34301 ft | 467 kts | 274° |
| 2026-05-04 12:07 | 57.01936 | -30.51134 | 34303 ft | 469 kts | 274° |
| 2026-05-04 12:08 | 57.02358 | -30.63112 | 34318 ft | 473 kts | 274° |
| 2026-05-04 12:08 | 57.02775 | -30.75254 | 34313 ft | 479 kts | 274° |
| 2026-05-04 12:09 | 57.03184 | -30.87514 | 34315 ft | 482 kts | 274° |
| 2026-05-04 12:09 | 57.03583 | -30.99798 | 34303 ft | 482 kts | 274° |
| 2026-05-04 12:10 | 57.03969 | -31.12082 | 34304 ft | 482 kts | 274° |
| 2026-05-04 12:10 | 57.04343 | -31.24378 | 34306 ft | 481 kts | 274° |
| 2026-05-04 12:11 | 57.04705 | -31.36662 | 34312 ft | 481 kts | 273° |
| 2026-05-04 12:11 | 57.05055 | -31.48947 | 34312 ft | 482 kts | 274° |
| 2026-05-04 12:12 | 57.05394 | -31.61247 | 34310 ft | 483 kts | 274° |
| 2026-05-04 12:12 | 57.05722 | -31.73595 | 34315 ft | 484 kts | 273° |
| 2026-05-04 12:14 | 57.06916 | -32.23312 | 34316 ft | 489 kts | 273° |
| 2026-05-04 12:15 | 57.07185 | -32.35800 | 34321 ft | 489 kts | 273° |
| 2026-05-04 12:15 | 57.07441 | -32.48230 | 34321 ft | 490 kts | 274° |
| 2026-05-04 12:16 | 57.07686 | -32.60738 | 34321 ft | 489 kts | 273° |
| 2026-05-04 12:16 | 57.07918 | -32.73246 | 34320 ft | 489 kts | 273° |
| 2026-05-04 12:17 | 57.08137 | -32.85733 | 34324 ft | 488 kts | 273° |
| 2026-05-04 12:17 | 57.08344 | -32.98194 | 34326 ft | 488 kts | 273° |
| 2026-05-04 12:18 | 57.08538 | -33.10670 | 34327 ft | 487 kts | 273° |
| 2026-05-04 12:18 | 57.08720 | -33.23142 | 34327 ft | 487 kts | 273° |
| 2026-05-04 12:19 | 57.08890 | -33.35592 | 34324 ft | 487 kts | 272° |
| 2026-05-04 12:19 | 57.09046 | -33.47971 | 34330 ft | 487 kts | 272° |
| 2026-05-04 12:20 | 57.09190 | -33.60424 | 34331 ft | 487 kts | 272° |
| 2026-05-04 12:20 | 57.09322 | -33.72860 | 34328 ft | 486 kts | 272° |
| 2026-05-04 12:21 | 57.09442 | -33.85309 | 34332 ft | 486 kts | 272° |
| 2026-05-04 12:21 | 57.09549 | -33.97742 | 34329 ft | 486 kts | 272° |
| 2026-05-04 12:22 | 57.09644 | -34.10182 | 34335 ft | 485 kts | 272° |
| 2026-05-04 12:22 | 57.09727 | -34.22602 | 34329 ft | 485 kts | 272° |
| 2026-05-04 12:23 | 57.09797 | -34.34929 | 34329 ft | 485 kts | 272° |
| 2026-05-04 12:23 | 57.09855 | -34.47317 | 34328 ft | 484 kts | 272° |
| 2026-05-04 12:24 | 57.09901 | -34.59710 | 34335 ft | 484 kts | 272° |
| 2026-05-04 12:24 | 57.09935 | -34.72090 | 34332 ft | 484 kts | 271° |
| 2026-05-04 12:25 | 57.09956 | -34.84476 | 34327 ft | 484 kts | 271° |
| 2026-05-04 12:25 | 57.09965 | -34.96852 | 34331 ft | 484 kts | 271° |
| 2026-05-04 12:26 | 57.09962 | -35.09222 | 34329 ft | 484 kts | 271° |
| 2026-05-04 12:26 | 57.09947 | -35.21597 | 34324 ft | 483 kts | 271° |
| 2026-05-04 12:27 | 57.09920 | -35.33952 | 34322 ft | 483 kts | 271° |
| 2026-05-04 12:27 | 57.09880 | -35.46305 | 34320 ft | 483 kts | 271° |
| 2026-05-04 12:28 | 57.09829 | -35.58659 | 34324 ft | 482 kts | 271° |
| 2026-05-04 12:28 | 57.09765 | -35.70903 | 34322 ft | 482 kts | 270° |
| 2026-05-04 12:29 | 57.09690 | -35.83233 | 34319 ft | 482 kts | 270° |
| 2026-05-04 12:29 | 57.09603 | -35.95580 | 34316 ft | 482 kts | 270° |
| 2026-05-04 12:30 | 57.09502 | -36.07893 | 34315 ft | 482 kts | 270° |
| 2026-05-04 12:30 | 57.09390 | -36.20216 | 34319 ft | 481 kts | 270° |
| 2026-05-04 12:31 | 57.09288 | -36.30462 | 34316 ft | 481 kts | 270° |
| 2026-05-04 12:31 | 57.09155 | -36.42758 | 34307 ft | 480 kts | 270° |
| 2026-05-04 12:32 | 57.08932 | -36.61181 | 34309 ft | 479 kts | 270° |
| 2026-05-04 12:33 | 57.08768 | -36.73430 | 34316 ft | 479 kts | 269° |
| 2026-05-04 12:33 | 57.08594 | -36.85655 | 34308 ft | 478 kts | 269° |
| 2026-05-04 12:34 | 57.08408 | -36.97858 | 34312 ft | 477 kts | 269° |
| 2026-05-04 12:34 | 57.08209 | -37.10073 | 34304 ft | 477 kts | 269° |
| 2026-05-04 12:35 | 57.08000 | -37.22174 | 34310 ft | 477 kts | 269° |
| 2026-05-04 12:35 | 57.07778 | -37.34440 | 34304 ft | 476 kts | 269° |
| 2026-05-04 12:36 | 57.07546 | -37.46529 | 34305 ft | 476 kts | 268° |
| 2026-05-04 12:36 | 57.07301 | -37.58711 | 34300 ft | 476 kts | 268° |
| 2026-05-04 12:37 | 57.07045 | -37.70874 | 34300 ft | 476 kts | 268° |
| 2026-05-04 12:37 | 57.06776 | -37.83023 | 34302 ft | 475 kts | 268° |
| 2026-05-04 12:38 | 57.06496 | -37.95166 | 34292 ft | 474 kts | 268° |
| 2026-05-04 12:38 | 57.06208 | -38.07200 | 34289 ft | 473 kts | 268° |
| 2026-05-04 12:39 | 57.05906 | -38.19288 | 34291 ft | 473 kts | 268° |
| 2026-05-04 12:39 | 57.05593 | -38.31341 | 34289 ft | 472 kts | 267° |
| 2026-05-04 12:40 | 57.05269 | -38.43379 | 34294 ft | 471 kts | 267° |
| 2026-05-04 12:40 | 57.04934 | -38.55407 | 34284 ft | 471 kts | 267° |
| 2026-05-04 12:41 | 57.04588 | -38.67428 | 34284 ft | 471 kts | 267° |
| 2026-05-04 12:41 | 57.04230 | -38.79434 | 34283 ft | 470 kts | 267° |
| 2026-05-04 12:42 | 57.03862 | -38.91417 | 34282 ft | 470 kts | 267° |
| 2026-05-04 12:42 | 57.03482 | -39.03392 | 34276 ft | 469 kts | 267° |
| 2026-05-04 12:43 | 57.03091 | -39.15357 | 34275 ft | 469 kts | 266° |
| 2026-05-04 12:43 | 57.02689 | -39.27304 | 34272 ft | 468 kts | 266° |
| 2026-05-04 12:44 | 57.02277 | -39.39230 | 34268 ft | 468 kts | 266° |
| 2026-05-04 12:44 | 57.01853 | -39.51147 | 34264 ft | 467 kts | 266° |
| 2026-05-04 12:45 | 57.01419 | -39.63045 | 34267 ft | 467 kts | 266° |
| 2026-05-04 12:45 | 57.00975 | -39.74914 | 34266 ft | 466 kts | 266° |
| 2026-05-04 12:46 | 57.00520 | -39.86773 | 34262 ft | 465 kts | 266° |
| 2026-05-04 12:46 | 57.00059 | -39.98539 | 34258 ft | 464 kts | 266° |
| 2026-05-04 12:47 | 56.99470 | -40.10334 | 34261 ft | 464 kts | 265° |
| 2026-05-04 12:47 | 56.98739 | -40.22078 | 34252 ft | 463 kts | 264° |
| 2026-05-04 12:48 | 56.98001 | -40.33801 | 34251 ft | 462 kts | 265° |
| 2026-05-04 12:48 | 56.97273 | -40.45509 | 34251 ft | 462 kts | 265° |
| 2026-05-04 12:49 | 56.96546 | -40.57201 | 34249 ft | 461 kts | 265° |
| 2026-05-04 12:49 | 56.95816 | -40.68797 | 34240 ft | 460 kts | 265° |
| 2026-05-04 12:50 | 56.95070 | -40.80452 | 34240 ft | 460 kts | 265° |
| 2026-05-04 12:50 | 56.94315 | -40.92079 | 34236 ft | 459 kts | 265° |
| 2026-05-04 12:51 | 56.93551 | -41.03665 | 34234 ft | 458 kts | 265° |
| 2026-05-04 12:51 | 56.92777 | -41.15224 | 34230 ft | 457 kts | 265° |
| 2026-05-04 12:52 | 56.91995 | -41.26754 | 34225 ft | 456 kts | 266° |
| 2026-05-04 12:52 | 56.91203 | -41.38262 | 34224 ft | 455 kts | 266° |
| 2026-05-04 12:53 | 56.90403 | -41.49730 | 34222 ft | 454 kts | 266° |
| 2026-05-04 12:53 | 56.89595 | -41.61173 | 34214 ft | 453 kts | 266° |
| 2026-05-04 12:54 | 56.88777 | -41.72593 | 34215 ft | 452 kts | 266° |
| 2026-05-04 12:54 | 56.87949 | -41.83998 | 34212 ft | 451 kts | 266° |
| 2026-05-04 12:55 | 56.87120 | -41.95288 | 34206 ft | 450 kts | 266° |
| 2026-05-04 12:55 | 56.86271 | -42.06683 | 34202 ft | 449 kts | 266° |
| 2026-05-04 12:56 | 56.85425 | -42.17909 | 34205 ft | 448 kts | 266° |
| 2026-05-04 12:56 | 56.84563 | -42.29197 | 34196 ft | 447 kts | 266° |
| 2026-05-04 12:57 | 56.83695 | -42.40431 | 34192 ft | 446 kts | 266° |
| 2026-05-04 12:57 | 56.82818 | -42.51649 | 34190 ft | 445 kts | 266° |
| 2026-05-04 12:58 | 56.81935 | -42.62808 | 34184 ft | 443 kts | 266° |
| 2026-05-04 12:58 | 56.81045 | -42.73937 | 34184 ft | 442 kts | 266° |
| 2026-05-04 12:59 | 56.80155 | -42.84927 | 34180 ft | 440 kts | 266° |
| 2026-05-04 12:59 | 56.79250 | -42.95973 | 34173 ft | 439 kts | 266° |
| 2026-05-04 13:00 | 56.78340 | -43.06962 | 34170 ft | 437 kts | 266° |
| 2026-05-04 13:00 | 56.77424 | -43.17912 | 34168 ft | 436 kts | 266° |
| 2026-05-04 13:01 | 56.76500 | -43.28831 | 34161 ft | 435 kts | 266° |
| 2026-05-04 13:01 | 56.75568 | -43.39725 | 34154 ft | 434 kts | 266° |
| 2026-05-04 13:02 | 56.74628 | -43.50595 | 34163 ft | 434 kts | 266° |
| 2026-05-04 13:02 | 56.73686 | -43.61378 | 34154 ft | 434 kts | 265° |
| 2026-05-04 13:03 | 56.72729 | -43.72227 | 34150 ft | 434 kts | 265° |
| 2026-05-04 13:03 | 56.71760 | -43.83083 | 34135 ft | 434 kts | 265° |
| 2026-05-04 13:04 | 56.70782 | -43.93954 | 34145 ft | 436 kts | 265° |
| 2026-05-04 13:04 | 56.69790 | -44.04861 | 34143 ft | 438 kts | 265° |
| 2026-05-04 13:05 | 56.68781 | -44.15824 | 34128 ft | 440 kts | 264° |
| 2026-05-04 13:05 | 56.67763 | -44.26787 | 34123 ft | 440 kts | 264° |
| 2026-05-04 13:06 | 56.66731 | -44.37781 | 34120 ft | 440 kts | 264° |
| 2026-05-04 13:06 | 56.65700 | -44.48652 | 34113 ft | 439 kts | 264° |
| 2026-05-04 13:07 | 56.64652 | -44.59604 | 34111 ft | 439 kts | 263° |
| 2026-05-04 13:07 | 56.63597 | -44.70526 | 34109 ft | 439 kts | 263° |
| 2026-05-04 13:08 | 56.62531 | -44.81450 | 34101 ft | 439 kts | 263° |
| 2026-05-04 13:08 | 56.61457 | -44.92362 | 34101 ft | 439 kts | 263° |
| 2026-05-04 13:09 | 56.60373 | -45.03267 | 34101 ft | 439 kts | 262° |
| 2026-05-04 13:09 | 56.59277 | -45.14195 | 34090 ft | 440 kts | 262° |
| 2026-05-04 13:10 | 56.58172 | -45.25108 | 34086 ft | 440 kts | 262° |
| 2026-05-04 13:10 | 56.57056 | -45.36030 | 34082 ft | 441 kts | 262° |
| 2026-05-04 13:11 | 56.55927 | -45.46976 | 34079 ft | 441 kts | 261° |
| 2026-05-04 13:11 | 56.54789 | -45.57913 | 34073 ft | 442 kts | 261° |
| 2026-05-04 13:12 | 56.53640 | -45.68851 | 34068 ft | 442 kts | 261° |
| 2026-05-04 13:12 | 56.52675 | -45.77964 | 34066 ft | 443 kts | 261° |
| 2026-05-04 13:13 | 56.51506 | -45.88915 | 34059 ft | 443 kts | 261° |
| 2026-05-04 13:13 | 56.50134 | -46.01647 | 34054 ft | 443 kts | 260° |
| 2026-05-04 13:14 | 56.49137 | -46.10815 | 34049 ft | 443 kts | 260° |
| 2026-05-04 13:14 | 56.47939 | -46.21749 | 34037 ft | 443 kts | 259° |
| 2026-05-04 13:15 | 56.46740 | -46.32599 | 34031 ft | 443 kts | 259° |
| 2026-05-04 13:15 | 56.45524 | -46.43507 | 34035 ft | 442 kts | 259° |
| 2026-05-04 13:16 | 56.44297 | -46.54411 | 34019 ft | 442 kts | 259° |
| 2026-05-04 13:16 | 56.43065 | -46.65286 | 34025 ft | 441 kts | 258° |
| 2026-05-04 13:17 | 56.41824 | -46.76139 | 34022 ft | 441 kts | 258° |
| 2026-05-04 13:17 | 56.40575 | -46.86972 | 34012 ft | 440 kts | 258° |
| 2026-05-04 13:18 | 56.39325 | -46.97731 | 34016 ft | 440 kts | 258° |
| 2026-05-04 13:18 | 56.38058 | -47.08548 | 34006 ft | 440 kts | 257° |
| 2026-05-04 13:19 | 56.36782 | -47.19352 | 34001 ft | 440 kts | 257° |
| 2026-05-04 13:19 | 56.35496 | -47.30152 | 34000 ft | 440 kts | 257° |
| 2026-05-04 13:20 | 56.34200 | -47.40950 | 33995 ft | 441 kts | 257° |
| 2026-05-04 13:20 | 56.32892 | -47.51759 | 33986 ft | 442 kts | 256° |
| 2026-05-04 13:21 | 56.31575 | -47.62565 | 33971 ft | 442 kts | 256° |
| 2026-05-04 13:21 | 56.30244 | -47.73400 | 33972 ft | 443 kts | 256° |
| 2026-05-04 13:22 | 56.28900 | -47.84252 | 33966 ft | 444 kts | 256° |
| 2026-05-04 13:22 | 56.27545 | -47.95108 | 33963 ft | 445 kts | 256° |
| 2026-05-04 13:23 | 56.26177 | -48.05984 | 33956 ft | 446 kts | 255° |
| 2026-05-04 13:23 | 56.24806 | -48.16802 | 33943 ft | 447 kts | 255° |
| 2026-05-04 13:24 | 56.23415 | -48.27697 | 33954 ft | 447 kts | 255° |
| 2026-05-04 13:24 | 56.22011 | -48.38615 | 33946 ft | 448 kts | 255° |
| 2026-05-04 13:25 | 56.19885 | -48.54984 | 33928 ft | 449 kts | 255° |
| 2026-05-04 13:25 | 56.18451 | -48.65923 | 33922 ft | 450 kts | 254° |
| 2026-05-04 13:26 | 56.17005 | -48.76868 | 33915 ft | 451 kts | 254° |
| 2026-05-04 13:26 | 56.15547 | -48.87822 | 33913 ft | 452 kts | 254° |
| 2026-05-04 13:27 | 56.14078 | -48.98785 | 33909 ft | 453 kts | 253° |
| 2026-05-04 13:27 | 56.12595 | -49.09766 | 33906 ft | 453 kts | 253° |
| 2026-05-04 13:28 | 56.11100 | -49.20754 | 33899 ft | 454 kts | 253° |
| 2026-05-04 13:28 | 56.09593 | -49.31756 | 33893 ft | 455 kts | 253° |
| 2026-05-04 13:29 | 56.08073 | -49.42771 | 33890 ft | 456 kts | 253° |
| 2026-05-04 13:29 | 56.06541 | -49.53792 | 33885 ft | 456 kts | 253° |
| 2026-05-04 13:30 | 56.04998 | -49.64814 | 33877 ft | 457 kts | 252° |
| 2026-05-04 13:30 | 56.03451 | -49.75786 | 33871 ft | 458 kts | 252° |
| 2026-05-04 13:31 | 56.01885 | -49.86823 | 33866 ft | 458 kts | 252° |
| 2026-05-04 13:31 | 56.00293 | -49.97855 | 33858 ft | 458 kts | 250° |
| 2026-05-04 13:32 | 55.98044 | -50.08433 | 33858 ft | 455 kts | 243° |
| 2026-05-04 13:32 | 55.95497 | -50.18795 | 33847 ft | 456 kts | 243° |
| 2026-05-04 13:33 | 55.92952 | -50.29173 | 33844 ft | 457 kts | 243° |
| 2026-05-04 13:33 | 55.90407 | -50.39585 | 33836 ft | 458 kts | 243° |
| 2026-05-04 13:34 | 55.87860 | -50.49990 | 33828 ft | 459 kts | 243° |
| 2026-05-04 13:34 | 55.85298 | -50.60412 | 33821 ft | 459 kts | 243° |
| 2026-05-04 13:35 | 55.81446 | -50.75985 | 33813 ft | 460 kts | 242° |
| 2026-05-04 13:36 | 55.78855 | -50.86393 | 33811 ft | 461 kts | 242° |
| 2026-05-04 13:36 | 55.76249 | -50.96817 | 33800 ft | 462 kts | 242° |
| 2026-05-04 13:37 | 55.73633 | -51.07231 | 33797 ft | 462 kts | 242° |
| 2026-05-04 13:37 | 55.71007 | -51.17634 | 33790 ft | 462 kts | 241° |
| 2026-05-04 13:38 | 55.68370 | -51.28030 | 33781 ft | 462 kts | 241° |
| 2026-05-04 13:38 | 55.65724 | -51.38419 | 33770 ft | 462 kts | 241° |
| 2026-05-04 13:39 | 55.63067 | -51.48797 | 33766 ft | 462 kts | 240° |
| 2026-05-04 13:39 | 55.60407 | -51.59142 | 33783 ft | 462 kts | 240° |
| 2026-05-04 13:40 | 55.58185 | -51.67743 | 33762 ft | 462 kts | 240° |
| 2026-05-04 13:40 | 55.56397 | -51.74642 | 33761 ft | 462 kts | 240° |
| 2026-05-04 13:41 | 55.52387 | -51.90040 | 33754 ft | 462 kts | 240° |
| 2026-05-04 13:41 | 55.49687 | -52.00345 | 33749 ft | 462 kts | 239° |
| 2026-05-04 13:42 | 55.45621 | -52.15779 | 33743 ft | 462 kts | 239° |
| 2026-05-04 13:42 | 55.42901 | -52.26047 | 33738 ft | 463 kts | 239° |
| 2026-05-04 13:43 | 55.40171 | -52.36306 | 33732 ft | 463 kts | 239° |
| 2026-05-04 13:43 | 55.37446 | -52.46495 | 33721 ft | 463 kts | 239° |
| 2026-05-04 13:44 | 55.34697 | -52.56731 | 33718 ft | 463 kts | 239° |
| 2026-05-04 13:44 | 55.31937 | -52.66964 | 33710 ft | 464 kts | 238° |
| 2026-05-04 13:45 | 55.29165 | -52.77194 | 33705 ft | 464 kts | 238° |
| 2026-05-04 13:45 | 55.26385 | -52.87407 | 33696 ft | 464 kts | 238° |
| 2026-05-04 13:46 | 55.23593 | -52.97618 | 33691 ft | 464 kts | 238° |
| 2026-05-04 13:46 | 55.20791 | -53.07822 | 33683 ft | 465 kts | 238° |
| 2026-05-04 13:47 | 55.17980 | -53.18011 | 33684 ft | 465 kts | 238° |
| 2026-05-04 13:47 | 55.15174 | -53.28137 | 33678 ft | 466 kts | 238° |
| 2026-05-04 13:48 | 55.12342 | -53.38316 | 33669 ft | 466 kts | 237° |
| 2026-05-04 13:48 | 55.09497 | -53.48492 | 33666 ft | 466 kts | 237° |
| 2026-05-04 13:49 | 55.06644 | -53.58656 | 33658 ft | 466 kts | 237° |
| 2026-05-04 13:49 | 55.03781 | -53.68809 | 33652 ft | 467 kts | 237° |
| 2026-05-04 13:50 | 55.00908 | -53.78953 | 33657 ft | 467 kts | 237° |
| 2026-05-04 13:50 | 54.98023 | -53.89095 | 33633 ft | 467 kts | 237° |
| 2026-05-04 13:51 | 54.95128 | -53.99226 | 33631 ft | 467 kts | 236° |
| 2026-05-04 13:51 | 54.92232 | -54.09317 | 33625 ft | 468 kts | 236° |